createdAt,value
2019-03-05T00:04:42.067Z,63.00
2019-03-05T00:07:17.240Z,63.30
2019-03-05T00:09:47.693Z,63.60
2019-03-05T00:12:38.046Z,63.90
2019-03-05T00:15:08.531Z,63.90
2019-03-05T00:17:46.918Z,63.80
2019-03-05T00:20:16.209Z,63.90
2019-03-05T00:22:54.662Z,64.30
2019-03-05T00:25:30.129Z,63.30
2019-03-05T00:28:27.589Z,63.40
2019-03-05T00:31:16.699Z,62.80
2019-03-05T00:34:18.170Z,61.00
2019-03-05T00:37:06.822Z,60.40
2019-03-05T00:40:16.794Z,60.00
2019-03-05T00:43:35.521Z,59.80
2019-03-05T00:46:43.609Z,59.60
2019-03-05T00:49:32.667Z,58.40
2019-03-05T00:52:34.104Z,57.60
2019-03-05T00:55:32.081Z,56.90
2019-03-05T00:58:38.107Z,56.00
2019-03-05T01:01:41.317Z,56.50
2019-03-05T01:05:13.311Z,56.60
2019-03-05T01:07:44.722Z,56.80
2019-03-05T01:10:16.051Z,57.00
2019-03-05T01:13:06.592Z,57.10
2019-03-05T01:15:38.274Z,57.00
2019-03-05T01:18:08.042Z,57.50
2019-03-05T01:20:37.525Z,57.40
2019-03-05T01:23:07.368Z,57.90
2019-03-05T01:25:36.812Z,58.50
2019-03-05T01:28:06.476Z,59.00
2019-03-05T01:31:06.672Z,59.70
2019-03-05T01:33:44.787Z,60.00
2019-03-05T01:36:42.615Z,60.70
2019-03-05T01:39:33.485Z,62.00
2019-03-05T01:42:03.169Z,63.20
2019-03-05T01:44:32.513Z,63.80
2019-03-05T01:47:08.154Z,64.40
2019-03-05T01:49:37.526Z,65.20
2019-03-05T01:52:09.051Z,65.90
2019-03-05T01:54:39.397Z,67.30
2019-03-05T01:57:18.050Z,67.90
2019-03-05T01:59:47.384Z,68.90
2019-03-05T02:02:22.606Z,69.60
2019-03-05T02:04:51.973Z,70.80
2019-03-05T02:07:21.531Z,71.70
2019-03-05T02:09:51.015Z,72.50
2019-03-05T02:12:27.627Z,73.00
2019-03-05T02:15:05.521Z,73.30
2019-03-05T02:17:45.615Z,73.70
2019-03-05T02:20:21.753Z,73.70
2019-03-05T02:23:16.214Z,73.80
2019-03-05T02:26:07.029Z,73.40
2019-03-05T02:29:14.677Z,73.50
2019-03-05T02:32:42.273Z,73.80
2019-03-05T02:35:38.903Z,74.10
2019-03-05T02:38:52.235Z,74.30
2019-03-05T02:42:01.707Z,74.70
2019-03-05T02:44:58.165Z,74.70
2019-03-05T02:48:05.578Z,74.80
2019-03-05T02:51:15.983Z,74.70
2019-03-05T02:54:22.322Z,74.60
2019-03-05T02:57:10.842Z,74.60
2019-03-05T02:59:40.909Z,73.80
2019-03-05T03:02:29.857Z,73.60
2019-03-05T03:05:15.454Z,73.40
2019-03-05T03:07:47.235Z,73.20
2019-03-05T03:10:22.355Z,73.00
2019-03-05T03:12:51.858Z,73.10
2019-03-05T03:15:21.406Z,73.00
2019-03-05T03:17:51.055Z,72.70
2019-03-05T03:20:21.517Z,72.50
2019-03-05T03:22:50.890Z,72.60
2019-03-05T03:25:26.587Z,72.50
2019-03-05T03:27:55.847Z,72.60
2019-03-05T03:30:27.514Z,73.20
2019-03-05T03:32:56.883Z,73.30
2019-03-05T03:35:29.339Z,73.70
2019-03-05T03:37:58.580Z,73.90
2019-03-05T03:40:27.942Z,74.10
2019-03-05T03:42:57.321Z,74.40
2019-03-05T03:45:27.559Z,74.70
2019-03-05T03:47:56.934Z,75.00
2019-03-05T03:50:28.587Z,74.90
2019-03-05T03:52:58.034Z,74.40
2019-03-05T03:55:35.561Z,74.30
2019-03-05T03:58:04.989Z,74.70
2019-03-05T04:00:34.428Z,74.30
2019-03-05T04:03:04.640Z,74.30
2019-03-05T04:05:35.206Z,74.50
2019-03-05T04:08:05.091Z,74.90
2019-03-05T04:10:35.017Z,75.20
2019-03-05T04:13:04.450Z,75.90
2019-03-05T04:15:46.625Z,76.30
2019-03-05T04:18:15.944Z,76.70
2019-03-05T04:20:54.266Z,77.30
2019-03-05T04:23:23.591Z,78.00
2019-03-05T04:25:53.261Z,77.70
2019-03-05T04:28:22.999Z,77.30
2019-03-05T04:30:54.952Z,76.70
2019-03-05T04:33:24.175Z,77.00
2019-03-05T04:35:57.673Z,76.40
2019-03-05T04:38:26.950Z,75.90
2019-03-05T04:40:58.457Z,75.40
2019-03-05T04:43:27.758Z,74.70
2019-03-05T04:46:09.121Z,74.30
2019-03-05T04:48:39.622Z,74.50
2019-03-05T04:51:15.797Z,75.60
2019-03-05T04:53:45.950Z,75.20
2019-03-05T04:56:17.406Z,75.50
2019-03-05T04:58:49.088Z,75.90
2019-03-05T05:01:22.221Z,76.20
2019-03-05T05:03:51.495Z,77.10
2019-03-05T05:06:20.729Z,77.10
2019-03-05T05:08:50.048Z,77.50
2019-03-05T05:11:21.874Z,77.90
2019-03-05T05:13:51.127Z,78.10
2019-03-05T05:16:20.549Z,77.80
2019-03-05T05:18:49.812Z,77.20
2019-03-05T05:21:19.088Z,76.50
2019-03-05T05:23:48.489Z,76.40
2019-03-05T05:26:22.252Z,76.00
2019-03-05T05:28:51.684Z,76.30
2019-03-05T05:31:21.036Z,76.30
2019-03-05T05:33:50.289Z,76.50
2019-03-05T05:36:27.817Z,76.10
2019-03-05T05:38:57.209Z,76.00
2019-03-05T05:41:37.792Z,76.00
2019-03-05T05:44:07.302Z,75.50
2019-03-05T05:46:36.609Z,75.10
2019-03-05T05:49:06.309Z,75.00
2019-03-05T05:51:35.577Z,74.80
2019-03-05T05:54:10.843Z,74.10
2019-03-05T05:56:40.806Z,73.70
2019-03-05T05:59:10.178Z,73.20
2019-03-05T06:01:40.463Z,72.30
2019-03-05T06:04:15.681Z,71.90
2019-03-05T06:06:47.528Z,71.70
2019-03-05T06:09:16.819Z,71.70
2019-03-05T06:11:47.099Z,70.40
2019-03-05T06:14:16.435Z,70.10
2019-03-05T06:16:47.260Z,70.10
2019-03-05T06:19:17.701Z,69.30
2019-03-05T06:21:47.003Z,68.90
2019-03-05T06:24:16.484Z,68.30
2019-03-05T06:26:51.066Z,67.60
2019-03-05T06:29:20.873Z,67.60
2019-03-05T06:31:59.595Z,67.10
2019-03-05T06:34:28.887Z,67.40
2019-03-05T06:37:09.129Z,67.50
2019-03-05T06:39:38.567Z,67.10
2019-03-05T06:42:09.452Z,66.50
2019-03-05T06:44:38.989Z,66.70
2019-03-05T06:47:10.449Z,66.40
2019-03-05T06:49:41.392Z,66.10
2019-03-05T06:52:11.854Z,65.90
2019-03-05T06:54:47.370Z,65.90
2019-03-05T06:57:16.824Z,65.80
2019-03-05T06:59:47.578Z,65.60
2019-03-05T07:02:22.659Z,65.70
2019-03-05T07:05:00.321Z,65.30
2019-03-05T07:07:31.662Z,64.40
2019-03-05T07:10:16.386Z,64.40
2019-03-05T07:13:47.393Z,64.80
2019-03-05T07:16:39.092Z,64.20
2019-03-05T07:19:23.830Z,63.20
2019-03-05T07:22:22.566Z,63.40
2019-03-05T07:24:52.797Z,62.80
2019-03-05T07:27:32.832Z,62.50
2019-03-05T07:30:24.055Z,62.40
2019-03-05T07:32:57.282Z,62.10
2019-03-05T07:35:31.239Z,62.10
2019-03-05T07:38:00.610Z,61.90
2019-03-05T07:40:30.043Z,61.70
2019-03-05T07:43:00.918Z,61.00
2019-03-05T07:45:30.395Z,60.60
2019-03-05T07:47:59.751Z,59.80
2019-03-05T07:50:29.114Z,59.40
2019-03-05T07:52:58.353Z,59.30
2019-03-05T07:55:27.800Z,59.60
2019-03-05T07:57:57.131Z,58.90
2019-03-05T08:00:27.309Z,58.40
2019-03-05T08:02:56.581Z,58.50
2019-03-05T08:05:26.007Z,58.60
2019-03-05T08:07:55.714Z,58.50
2019-03-05T08:10:30.998Z,58.50
2019-03-05T08:13:46.103Z,58.10
2019-03-05T08:16:40.741Z,57.80
2019-03-05T08:19:10.138Z,57.20
2019-03-05T08:21:40.001Z,56.10
2019-03-05T08:24:09.510Z,53.10
2019-03-05T08:26:40.348Z,51.40
2019-03-05T08:29:09.692Z,51.60
2019-03-05T08:31:39.337Z,49.60
2019-03-05T08:34:08.701Z,46.90
2019-03-05T08:36:37.949Z,44.30
2019-03-05T08:39:08.479Z,41.40
2019-03-05T08:41:37.749Z,39.80
2019-03-05T08:44:07.137Z,38.40
2019-03-05T08:46:37.128Z,37.10
2019-03-05T08:49:06.676Z,36.50
2019-03-05T08:51:35.960Z,34.20
2019-03-05T08:54:07.742Z,34.50
2019-03-05T08:56:36.446Z,35.50
2019-03-05T08:59:05.936Z,35.30
2019-03-05T09:01:35.250Z,33.90
2019-03-05T09:04:04.685Z,33.60
2019-03-05T09:06:34.030Z,33.00
2019-03-05T09:09:04.504Z,33.60
2019-03-05T09:11:33.865Z,33.70
2019-03-05T09:14:05.709Z,33.20
2019-03-05T09:16:36.211Z,33.40
2019-03-05T09:19:07.729Z,33.60
2019-03-05T09:21:37.120Z,33.10
2019-03-05T09:24:06.593Z,33.20
2019-03-05T09:26:35.951Z,32.60
2019-03-05T09:29:05.755Z,33.50
2019-03-05T09:31:35.210Z,32.80
2019-03-05T09:34:04.971Z,32.50
2019-03-05T09:36:34.866Z,32.30
2019-03-05T09:39:05.408Z,31.70
2019-03-05T09:41:34.805Z,31.00
2019-03-05T09:44:04.084Z,30.40
2019-03-05T09:46:33.500Z,29.50
2019-03-05T09:49:03.677Z,30.40
2019-03-05T09:51:33.051Z,31.40
2019-03-05T09:54:02.516Z,30.70
2019-03-05T09:56:31.997Z,29.70
2019-03-05T09:59:01.488Z,30.50
2019-03-05T10:01:31.315Z,32.30
2019-03-05T10:04:00.769Z,34.90
2019-03-05T10:06:30.384Z,35.00
2019-03-05T10:08:59.698Z,36.60
2019-03-05T10:11:29.847Z,37.10
2019-03-05T10:13:59.201Z,36.70
2019-03-05T10:16:28.913Z,35.30
2019-03-05T10:18:58.379Z,34.80
2019-03-05T10:21:27.722Z,33.90
2019-03-05T10:23:57.156Z,33.40
2019-03-05T10:26:26.399Z,34.70
2019-03-05T10:28:55.790Z,35.80
2019-03-05T10:31:25.121Z,35.90
2019-03-05T10:33:54.636Z,34.60
2019-03-05T10:36:24.223Z,33.20
2019-03-05T10:38:57.532Z,33.60
2019-03-05T10:41:25.352Z,32.90
2019-03-05T10:43:54.776Z,32.50
2019-03-05T10:46:24.033Z,31.90
2019-03-05T10:48:53.501Z,33.30
2019-03-05T10:51:22.873Z,34.90
2019-03-05T10:53:52.511Z,33.50
2019-03-05T10:56:21.988Z,33.80
2019-03-05T10:58:51.270Z,34.30
2019-03-05T11:01:20.634Z,34.30
2019-03-05T11:03:49.962Z,35.40
2019-03-05T11:06:19.337Z,35.90
2019-03-05T11:08:50.117Z,37.10
2019-03-05T11:11:19.404Z,38.60
2019-03-05T11:13:49.002Z,40.50
2019-03-05T11:16:18.472Z,41.60
2019-03-05T11:18:48.017Z,42.30
2019-03-05T11:21:17.747Z,42.90
2019-03-05T11:23:47.271Z,42.80
2019-03-05T11:26:16.770Z,41.70
2019-03-05T11:28:46.829Z,41.80
2019-03-05T11:31:16.272Z,41.30
2019-03-05T11:33:45.676Z,41.90
2019-03-05T11:36:15.132Z,43.30
2019-03-05T11:38:44.569Z,44.80
2019-03-05T11:41:13.874Z,44.60
2019-03-05T11:43:44.116Z,44.50
2019-03-05T11:46:17.414Z,44.50
2019-03-05T11:48:46.949Z,43.10
2019-03-05T11:51:16.737Z,41.60
2019-03-05T11:53:46.191Z,40.90
2019-03-05T11:56:15.671Z,41.50
2019-03-05T11:58:46.637Z,41.50
2019-03-05T12:01:41.140Z,42.10
2019-03-05T12:04:10.549Z,41.20
2019-03-05T12:06:41.124Z,40.20
2019-03-05T12:09:10.484Z,39.20
2019-03-05T12:11:40.030Z,39.60
2019-03-05T12:14:09.425Z,40.70
2019-03-05T12:16:41.780Z,41.20
2019-03-05T12:19:12.760Z,40.70
2019-03-05T12:21:44.102Z,41.20
2019-03-05T12:24:13.514Z,41.30
2019-03-05T12:26:43.066Z,44.20
2019-03-05T12:29:12.404Z,46.40
2019-03-05T12:31:41.932Z,46.10
2019-03-05T12:34:11.271Z,45.40
2019-03-05T12:36:40.809Z,45.60
2019-03-05T12:39:10.465Z,46.40
2019-03-05T12:41:41.365Z,47.80
2019-03-05T12:44:10.727Z,48.90
2019-03-05T12:46:40.142Z,49.20
2019-03-05T12:49:09.494Z,49.50
2019-03-05T12:51:39.235Z,50.00
2019-03-05T12:54:08.548Z,50.90
2019-03-05T12:56:38.006Z,51.10
2019-03-05T12:59:07.266Z,52.10
2019-03-05T13:01:37.653Z,51.40
2019-03-05T13:04:06.955Z,51.10
2019-03-05T13:06:38.654Z,50.70
2019-03-05T13:09:17.759Z,50.60
2019-03-05T13:11:49.939Z,50.10
2019-03-05T13:14:18.703Z,50.10
2019-03-05T13:16:48.146Z,49.20
2019-03-05T13:19:17.518Z,48.40
2019-03-05T13:21:51.797Z,48.10
2019-03-05T13:24:21.278Z,48.40
2019-03-05T13:26:50.754Z,48.10
2019-03-05T13:29:20.665Z,47.40
2019-03-05T13:31:51.140Z,46.50
2019-03-05T13:34:20.529Z,46.50
2019-03-05T13:36:50.661Z,46.20
2019-03-05T13:39:23.889Z,46.30
2019-03-05T13:41:55.257Z,46.30
2019-03-05T13:44:32.083Z,46.80
2019-03-05T13:47:04.659Z,46.50
2019-03-05T13:50:08.773Z,46.70
2019-03-05T13:52:57.321Z,46.80
2019-03-05T13:56:28.615Z,46.70
2019-03-05T13:59:27.810Z,47.00
2019-03-05T14:01:57.279Z,46.20
2019-03-05T14:04:31.756Z,46.30
2019-03-05T14:08:07.211Z,46.70
2019-03-05T14:10:36.605Z,46.60
2019-03-05T14:13:06.080Z,46.00
2019-03-05T14:15:36.087Z,45.50
2019-03-05T14:18:06.215Z,46.20
2019-03-05T14:20:35.669Z,46.80
2019-03-05T14:23:05.453Z,46.50
2019-03-05T14:25:34.825Z,47.30
2019-03-05T14:28:04.212Z,46.80
2019-03-05T14:30:33.666Z,46.90
2019-03-05T14:33:02.979Z,46.10
2019-03-05T14:35:33.211Z,46.00
2019-03-05T14:38:03.754Z,45.80
2019-03-05T14:40:33.129Z,45.80
2019-03-05T14:43:03.475Z,45.10
2019-03-05T14:45:34.595Z,44.80
2019-03-05T14:48:04.608Z,45.20
2019-03-05T14:50:35.292Z,44.80
2019-03-05T14:53:05.015Z,45.20
2019-03-05T14:55:34.549Z,44.60
2019-03-05T14:58:04.030Z,44.60
2019-03-05T15:00:33.468Z,44.20
2019-03-05T15:03:03.137Z,43.90
2019-03-05T15:05:32.453Z,43.70
2019-03-05T15:08:01.961Z,43.70
2019-03-05T15:10:31.413Z,43.70
2019-03-05T15:13:01.190Z,43.90
2019-03-05T15:15:31.270Z,43.60
2019-03-05T15:18:00.653Z,43.90
2019-03-05T15:20:30.153Z,44.10
2019-03-05T15:22:59.450Z,44.50
2019-03-05T15:25:30.282Z,44.70
2019-03-05T15:28:02.480Z,44.60
2019-03-05T15:30:32.196Z,44.60
2019-03-05T15:33:02.960Z,44.20
2019-03-05T15:35:32.537Z,44.30
2019-03-05T15:38:02.491Z,44.30
2019-03-05T15:40:31.956Z,44.80
2019-03-05T15:43:01.434Z,44.90
2019-03-05T15:45:31.201Z,45.00
2019-03-05T15:48:00.638Z,45.00
2019-03-05T15:50:30.476Z,44.60
2019-03-05T15:53:00.895Z,44.70
2019-03-05T15:55:30.786Z,44.30
2019-03-05T15:58:00.105Z,44.40
2019-03-05T16:00:32.394Z,44.70
2019-03-05T16:03:02.236Z,44.40
2019-03-05T16:05:31.720Z,44.40
2019-03-05T16:08:01.497Z,44.80
2019-03-05T16:10:32.367Z,45.00
2019-03-05T16:13:03.924Z,45.00
2019-03-05T16:15:33.609Z,45.20
2019-03-05T16:18:05.213Z,45.20
2019-03-05T16:20:34.870Z,43.50
2019-03-05T16:23:08.985Z,44.30
2019-03-05T16:25:46.187Z,44.90
2019-03-05T16:28:15.708Z,45.10
2019-03-05T16:31:16.467Z,45.00
2019-03-05T16:34:14.483Z,44.60
2019-03-05T16:37:12.813Z,43.90
2019-03-05T16:39:56.004Z,44.20
2019-03-05T16:43:03.153Z,43.90
2019-03-05T16:45:54.639Z,44.00
2019-03-05T16:48:34.031Z,43.60
2019-03-05T16:51:12.176Z,43.50
2019-03-05T16:53:50.353Z,43.70
2019-03-05T16:56:37.130Z,43.80
2019-03-05T16:59:43.975Z,43.80
2019-03-05T17:02:31.073Z,43.90
2019-03-05T17:05:31.674Z,44.40
2019-03-05T17:08:20.119Z,44.20
2019-03-05T17:11:14.378Z,44.30
2019-03-05T17:13:43.829Z,44.40
2019-03-05T17:16:16.643Z,45.20
2019-03-05T17:18:47.719Z,44.70
2019-03-05T17:21:27.704Z,45.00
2019-03-05T17:23:59.822Z,44.90
2019-03-05T17:26:35.749Z,45.30
2019-03-05T17:29:05.463Z,45.80
2019-03-05T17:31:35.871Z,46.00
2019-03-05T17:34:16.032Z,46.10
2019-03-05T17:36:47.899Z,45.50
2019-03-05T17:39:23.839Z,45.40
2019-03-05T17:41:53.133Z,44.80
2019-03-05T17:44:22.772Z,44.60
2019-03-05T17:46:52.046Z,44.60
2019-03-05T17:49:21.499Z,44.50
2019-03-05T17:51:51.977Z,44.30
2019-03-05T17:54:21.303Z,44.40
2019-03-05T17:56:50.937Z,44.30
2019-03-05T17:59:21.473Z,44.50
2019-03-05T18:01:50.981Z,44.70
2019-03-05T18:04:20.461Z,44.90
2019-03-05T18:06:49.753Z,44.90
2019-03-05T18:09:21.609Z,45.10
2019-03-05T18:11:51.216Z,45.10
2019-03-05T18:14:20.666Z,45.20
2019-03-05T18:16:50.219Z,45.30
2019-03-05T18:19:19.661Z,45.50
2019-03-05T18:21:49.110Z,45.80
2019-03-05T18:24:19.073Z,45.80
2019-03-05T18:26:49.701Z,46.10
2019-03-05T18:29:19.575Z,46.20
2019-03-05T18:31:49.288Z,46.50
2019-03-05T18:34:18.648Z,46.60
2019-03-05T18:36:48.549Z,46.60
2019-03-05T18:39:18.293Z,46.60
2019-03-05T18:41:47.745Z,46.80
2019-03-05T18:44:17.425Z,47.10
2019-03-05T18:46:46.999Z,47.40
2019-03-05T18:49:16.519Z,47.50
2019-03-05T18:51:46.014Z,47.50
2019-03-05T18:54:15.470Z,47.70
2019-03-05T18:56:44.756Z,47.50
2019-03-05T18:59:14.273Z,47.50
2019-03-05T19:01:43.762Z,47.50
2019-03-05T19:04:13.292Z,47.70
2019-03-05T19:06:42.815Z,47.90
2019-03-05T19:09:12.724Z,47.80
2019-03-05T19:11:42.186Z,48.00
2019-03-05T19:14:11.854Z,48.20
2019-03-05T19:16:41.255Z,48.40
2019-03-05T19:19:11.912Z,48.80
2019-03-05T19:21:41.587Z,48.90
2019-03-05T19:24:11.265Z,49.50
2019-03-05T19:26:41.778Z,49.90
2019-03-05T19:29:11.402Z,50.00
2019-03-05T19:31:40.958Z,50.30
2019-03-05T19:34:10.745Z,50.50
2019-03-05T19:36:40.059Z,50.50
2019-03-05T19:39:09.609Z,51.00
2019-03-05T19:41:38.958Z,51.70
2019-03-05T19:44:09.922Z,52.40
2019-03-05T19:46:39.453Z,52.80
2019-03-05T19:49:08.778Z,53.50
2019-03-05T19:51:38.324Z,54.90
2019-03-05T19:54:09.427Z,54.90
2019-03-05T19:56:39.234Z,55.20
2019-03-05T19:59:08.927Z,55.60
2019-03-05T20:01:41.354Z,55.90
2019-03-05T20:04:14.330Z,56.40
2019-03-05T20:06:45.273Z,57.00
2019-03-05T20:09:19.496Z,58.10
2019-03-05T20:11:48.811Z,59.30
2019-03-05T20:14:19.403Z,62.40
2019-03-05T20:16:51.749Z,68.00
2019-03-05T20:19:21.215Z,75.50
2019-03-05T20:21:50.772Z,80.40
2019-03-05T20:24:20.314Z,85.00
2019-03-05T20:26:49.802Z,86.00
2019-03-05T20:29:19.154Z,89.00
2019-03-05T20:31:48.996Z,90.90
2019-03-05T20:34:18.286Z,92.10
2019-03-05T20:36:48.527Z,92.90
2019-03-05T20:39:18.078Z,93.90
2019-03-05T20:41:47.380Z,94.30
2019-03-05T20:44:19.025Z,94.30
2019-03-05T20:46:48.435Z,94.60
2019-03-05T20:49:18.326Z,95.20
2019-03-05T20:51:52.374Z,95.00
2019-03-05T20:54:21.700Z,94.90
2019-03-05T20:56:54.178Z,95.30
2019-03-05T20:59:23.951Z,95.70
2019-03-05T21:01:53.604Z,95.40
2019-03-05T21:04:22.951Z,95.40
2019-03-05T21:06:52.575Z,95.40
2019-03-05T21:09:23.935Z,95.80
2019-03-05T21:11:55.615Z,96.30
2019-03-05T21:14:24.974Z,96.40
2019-03-05T21:16:55.982Z,96.80
2019-03-05T21:19:25.323Z,97.30
2019-03-05T21:21:54.821Z,97.60
2019-03-05T21:24:24.455Z,97.40
2019-03-05T21:26:53.910Z,97.40
2019-03-05T21:29:23.233Z,97.40
2019-03-05T21:31:53.119Z,97.20
2019-03-05T21:34:22.464Z,97.00
2019-03-05T21:36:51.998Z,97.20
2019-03-05T21:39:21.735Z,97.10
2019-03-05T21:41:51.198Z,97.20
2019-03-05T21:44:20.531Z,97.40
2019-03-05T21:46:49.924Z,97.30
2019-03-05T21:49:19.680Z,97.60
2019-03-05T21:51:49.017Z,97.60
2019-03-05T21:54:18.502Z,97.60
2019-03-05T21:56:50.211Z,97.50
2019-03-05T21:59:19.818Z,97.60
2019-03-05T22:01:51.033Z,97.80
2019-03-05T22:04:20.311Z,97.60
2019-03-05T22:06:49.682Z,97.20
2019-03-05T22:09:19.203Z,97.40
2019-03-05T22:11:50.785Z,97.20
2019-03-05T22:14:20.299Z,97.20
2019-03-05T22:16:49.615Z,97.30
2019-03-05T22:19:18.996Z,97.20
2019-03-05T22:21:48.455Z,96.90
2019-03-05T22:24:17.839Z,97.20
2019-03-05T22:26:47.259Z,97.10
2019-03-05T22:29:16.523Z,96.90
2019-03-05T22:31:46.076Z,96.30
2019-03-05T22:34:15.992Z,96.20
2019-03-05T22:36:45.363Z,95.70
2019-03-05T22:39:16.285Z,95.60
2019-03-05T22:41:45.601Z,95.40
2019-03-05T22:44:15.107Z,95.30
2019-03-05T22:46:44.688Z,95.40
2019-03-05T22:49:14.195Z,95.20
2019-03-05T22:51:43.670Z,95.50
2019-03-05T22:54:13.242Z,94.90
2019-03-05T22:56:42.563Z,94.90
2019-03-05T22:59:23.457Z,94.70
2019-03-05T23:01:55.171Z,94.70
2019-03-05T23:04:32.831Z,94.30
2019-03-05T23:07:02.303Z,94.00
2019-03-05T23:09:32.931Z,94.00
2019-03-05T23:12:07.414Z,94.00
2019-03-05T23:14:40.043Z,93.80
2019-03-05T23:17:10.860Z,93.80
2019-03-05T23:19:41.315Z,93.80
2019-03-05T23:22:12.600Z,93.90
2019-03-05T23:24:49.585Z,93.90
2019-03-05T23:27:20.983Z,93.80
2019-03-05T23:29:52.811Z,93.70
2019-03-05T23:32:26.032Z,93.80
2019-03-05T23:34:56.526Z,93.60
2019-03-05T23:37:49.762Z,93.70
2019-03-05T23:40:20.071Z,93.50
2019-03-05T23:42:51.343Z,93.90
2019-03-05T23:45:21.924Z,93.40
2019-03-05T23:47:52.531Z,93.40
2019-03-05T23:50:24.431Z,93.40
2019-03-05T23:52:55.584Z,93.40
2019-03-05T23:55:25.739Z,93.40
2019-03-05T23:57:56.998Z,93.40
